createdAt,value
2019-04-01T00:00:22.064Z,3.32
2019-04-01T00:01:22.000Z,3.36
2019-04-01T00:02:22.077Z,3.40
2019-04-01T00:03:21.971Z,3.31
2019-04-01T00:04:21.978Z,3.32
2019-04-01T00:05:21.967Z,3.16
2019-04-01T00:06:21.942Z,3.25
2019-04-01T00:07:21.956Z,3.21
2019-04-01T00:08:21.955Z,3.19
2019-04-01T00:09:21.919Z,3.19
2019-04-01T00:10:21.919Z,3.21
2019-04-01T00:11:21.894Z,3.16
2019-04-01T00:12:21.882Z,3.19
2019-04-01T00:13:21.884Z,3.23
2019-04-01T00:14:21.858Z,3.18
2019-04-01T00:15:21.935Z,3.16
2019-04-01T00:16:21.850Z,3.14
2019-04-01T00:17:21.833Z,3.05
2019-04-01T00:18:21.823Z,3.10
2019-04-01T00:19:21.808Z,3.16
2019-04-01T00:20:21.820Z,3.11
2019-04-01T00:21:21.791Z,3.03
2019-04-01T00:22:21.786Z,3.10
2019-04-01T00:23:21.821Z,3.07
2019-04-01T00:24:21.746Z,3.11
2019-04-01T00:25:21.758Z,3.10
2019-04-01T00:26:21.742Z,3.18
2019-04-01T00:27:21.720Z,3.07
2019-04-01T00:28:21.714Z,3.08
2019-04-01T00:29:21.767Z,3.04
2019-04-01T00:30:21.758Z,3.08
2019-04-01T00:31:21.711Z,3.00
2019-04-01T00:32:21.667Z,2.97
2019-04-01T00:33:21.662Z,2.93
2019-04-01T00:34:21.641Z,2.90
2019-04-01T00:35:21.637Z,2.98
2019-04-01T00:36:21.622Z,2.90
2019-04-01T00:37:21.729Z,2.95
2019-04-01T00:38:21.608Z,2.89
2019-04-01T00:39:21.588Z,2.92
2019-04-01T00:40:21.653Z,2.95
2019-04-01T00:41:21.588Z,3.00
2019-04-01T00:42:21.558Z,2.98
2019-04-01T00:43:21.565Z,2.93
2019-04-01T00:44:21.540Z,2.98
2019-04-01T00:45:21.576Z,2.95
2019-04-01T00:46:21.535Z,2.89
2019-04-01T00:47:21.504Z,2.97
2019-04-01T00:48:21.495Z,2.87
2019-04-01T00:49:21.495Z,2.89
2019-04-01T00:50:21.471Z,2.87
2019-04-01T00:51:21.483Z,2.83
2019-04-01T00:52:21.463Z,2.87
2019-04-01T00:53:21.440Z,2.83
2019-04-01T00:54:21.494Z,2.82
2019-04-01T00:55:21.418Z,2.83
2019-04-01T00:56:21.423Z,2.74
2019-04-01T00:57:22.871Z,2.75
2019-04-01T00:58:21.384Z,2.79
2019-04-01T00:59:21.587Z,2.72
2019-04-01T01:00:21.372Z,2.71
2019-04-01T01:01:21.368Z,2.69
2019-04-01T01:02:21.342Z,2.77
2019-04-01T01:03:21.330Z,2.68
2019-04-01T01:04:21.323Z,2.62
2019-04-01T01:05:21.312Z,2.61
2019-04-01T01:06:21.309Z,2.60
2019-04-01T01:07:21.306Z,2.51
2019-04-01T01:08:21.278Z,2.61
2019-04-01T01:09:21.333Z,2.56
2019-04-01T01:10:21.264Z,2.49
2019-04-01T01:11:21.243Z,2.57
2019-04-01T01:12:21.252Z,2.50
2019-04-01T01:13:21.314Z,2.47
2019-04-01T01:14:21.227Z,2.60
2019-04-01T01:15:21.207Z,2.50
2019-04-01T01:16:21.226Z,2.56
2019-04-01T01:17:21.186Z,2.61
2019-04-01T01:18:21.225Z,2.56
2019-04-01T01:19:21.175Z,2.56
2019-04-01T01:20:21.151Z,2.50
2019-04-01T01:21:21.157Z,2.46
2019-04-01T01:22:21.159Z,2.43
2019-04-01T01:23:21.127Z,2.43
2019-04-01T01:24:21.113Z,2.44
2019-04-01T01:25:21.096Z,2.44
2019-04-01T01:26:21.128Z,2.44
2019-04-01T01:27:21.090Z,2.39
2019-04-01T01:28:21.112Z,2.43
2019-04-01T01:29:21.079Z,2.44
2019-04-01T01:30:21.043Z,2.36
2019-04-01T01:31:21.094Z,2.42
2019-04-01T01:32:21.041Z,2.49
2019-04-01T01:33:21.029Z,2.43
2019-04-01T01:34:21.030Z,2.36
2019-04-01T01:35:20.989Z,2.32
2019-04-01T01:36:20.991Z,2.35
2019-04-01T01:37:21.037Z,2.33
2019-04-01T01:38:20.970Z,2.35
2019-04-01T01:39:20.958Z,2.36
2019-04-01T01:40:20.975Z,2.32
2019-04-01T01:41:21.166Z,2.29
2019-04-01T01:42:20.933Z,2.28
2019-04-01T01:43:20.992Z,2.26
2019-04-01T01:44:20.899Z,2.28
2019-04-01T01:45:20.911Z,2.14
2019-04-01T01:46:20.914Z,2.11
2019-04-01T01:47:20.885Z,2.13
2019-04-01T01:48:20.857Z,2.10
2019-04-01T01:49:20.863Z,2.13
2019-04-01T01:50:20.847Z,2.06
2019-04-01T01:51:20.837Z,1.89
2019-04-01T01:52:20.831Z,1.99
2019-04-01T01:53:20.819Z,1.95
2019-04-01T01:54:20.803Z,1.88
2019-04-01T01:55:20.870Z,1.94
2019-04-01T01:56:20.797Z,1.87
2019-04-01T01:57:20.783Z,1.85
2019-04-01T01:58:20.769Z,1.94
2019-04-01T01:59:20.744Z,1.87
2019-04-01T02:00:20.743Z,1.97
2019-04-01T02:01:20.789Z,1.92
2019-04-01T02:02:20.720Z,1.91
2019-04-01T02:03:20.727Z,1.85
2019-04-01T02:04:20.721Z,1.84
2019-04-01T02:05:20.686Z,1.84
2019-04-01T02:06:20.691Z,1.85
2019-04-01T02:07:20.741Z,1.81
2019-04-01T02:08:20.681Z,1.85
2019-04-01T02:09:20.665Z,1.91
2019-04-01T02:10:20.629Z,1.84
2019-04-01T02:11:20.618Z,1.80
2019-04-01T02:12:20.681Z,1.80
2019-04-01T02:13:20.599Z,1.77
2019-04-01T02:14:20.587Z,1.77
2019-04-01T02:15:20.594Z,1.74
2019-04-01T02:16:20.573Z,1.76
2019-04-01T02:17:20.576Z,1.68
2019-04-01T02:18:20.570Z,1.87
2019-04-01T02:19:20.558Z,1.80
2019-04-01T02:20:20.528Z,1.71
2019-04-01T02:21:20.529Z,1.76
2019-04-01T02:22:20.569Z,1.77
2019-04-01T02:23:20.517Z,1.76
2019-04-01T02:24:20.493Z,1.74
2019-04-01T02:25:20.483Z,1.68
2019-04-01T02:26:20.461Z,1.71
2019-04-01T02:27:20.451Z,1.70
2019-04-01T02:28:20.465Z,1.76
2019-04-01T02:29:20.446Z,1.67
2019-04-01T02:30:20.503Z,1.63
2019-04-01T02:31:20.436Z,1.73
2019-04-01T02:32:20.405Z,1.59
2019-04-01T02:33:20.428Z,1.70
2019-04-01T02:34:20.382Z,1.60
2019-04-01T02:35:20.435Z,1.55
2019-04-01T02:36:20.383Z,1.59
2019-04-01T02:37:20.353Z,1.56
2019-04-01T02:38:20.352Z,1.55
2019-04-01T02:39:20.409Z,1.45
2019-04-01T02:40:22.119Z,1.60
2019-04-01T02:41:20.330Z,1.59
2019-04-01T02:42:20.304Z,1.58
2019-04-01T02:43:20.393Z,1.60
2019-04-01T02:44:20.290Z,1.58
2019-04-01T02:45:20.282Z,1.56
2019-04-01T02:46:20.261Z,1.59
2019-04-01T02:47:20.264Z,1.58
2019-04-01T02:48:20.247Z,1.60
2019-04-01T02:49:20.252Z,1.53
2019-04-01T02:50:20.225Z,1.50
2019-04-01T02:51:20.228Z,1.45
2019-04-01T02:52:20.195Z,1.48
2019-04-01T02:53:20.309Z,1.52
2019-04-01T02:54:20.181Z,1.56
2019-04-01T02:55:20.180Z,1.56
2019-04-01T02:56:20.160Z,1.45
2019-04-01T02:57:20.152Z,1.45
2019-04-01T02:58:20.201Z,1.50
2019-04-01T02:59:20.147Z,1.53
2019-04-01T03:00:20.123Z,1.40
2019-04-01T03:01:20.101Z,1.40
2019-04-01T03:02:20.235Z,1.38
2019-04-01T03:03:20.106Z,1.34
2019-04-01T03:04:20.077Z,1.37
2019-04-01T03:05:20.136Z,1.28
2019-04-01T03:06:20.062Z,1.22
2019-04-01T03:07:20.046Z,1.26
2019-04-01T03:08:20.082Z,1.28
2019-04-01T03:09:20.036Z,1.20
2019-04-01T03:10:20.005Z,1.26
2019-04-01T03:11:20.042Z,1.14
2019-04-01T03:12:19.994Z,1.19
2019-04-01T03:13:19.975Z,1.12
2019-04-01T03:14:20.015Z,1.04
2019-04-01T03:15:19.965Z,1.10
2019-04-01T03:16:19.944Z,0.94
2019-04-01T03:17:20.030Z,1.02
2019-04-01T03:18:19.932Z,0.98
2019-04-01T03:19:19.910Z,1.08
2019-04-01T03:20:19.935Z,1.10
2019-04-01T03:21:19.900Z,0.96
2019-04-01T03:22:19.896Z,0.99
2019-04-01T03:23:19.875Z,0.99
2019-04-01T03:24:19.856Z,0.94
2019-04-01T03:25:19.848Z,0.83
2019-04-01T03:26:19.864Z,0.88
2019-04-01T03:27:19.831Z,0.91
2019-04-01T03:28:19.822Z,0.95
2019-04-01T03:29:19.866Z,0.99
2019-04-01T03:30:19.794Z,0.98
2019-04-01T03:31:19.788Z,0.88
2019-04-01T03:32:19.785Z,0.91
2019-04-01T03:33:19.770Z,0.86
2019-04-01T03:34:19.776Z,0.86
2019-04-01T03:35:19.744Z,0.78
2019-04-01T03:36:19.742Z,0.73
2019-04-01T03:37:19.724Z,0.68
2019-04-01T03:38:19.735Z,0.73
2019-04-01T03:39:19.704Z,0.65
2019-04-01T03:40:19.708Z,0.69
2019-04-01T03:41:19.685Z,0.47
2019-04-01T03:42:19.670Z,0.52
2019-04-01T03:43:19.709Z,0.52
2019-04-01T03:44:19.664Z,0.52
2019-04-01T03:45:19.653Z,0.47
2019-04-01T03:46:19.645Z,0.46
2019-04-01T03:47:19.620Z,0.44
2019-04-01T03:48:19.620Z,0.46
2019-04-01T03:49:19.603Z,0.46
2019-04-01T03:50:19.625Z,0.46
2019-04-01T03:51:19.590Z,0.39
2019-04-01T03:52:19.561Z,0.36
2019-04-01T03:53:19.559Z,0.28
2019-04-01T03:54:19.551Z,0.40
2019-04-01T03:55:19.598Z,0.31
2019-04-01T03:56:19.528Z,0.41
2019-04-01T03:57:19.620Z,0.25
2019-04-01T03:58:19.509Z,0.28
2019-04-01T03:59:19.497Z,0.25
2019-04-01T04:00:19.534Z,0.29
2019-04-01T04:01:19.478Z,0.29
2019-04-01T04:02:19.510Z,0.23
2019-04-01T04:03:19.466Z,0.25
2019-04-01T04:04:19.440Z,0.22
2019-04-01T04:05:19.430Z,0.18
2019-04-01T04:06:19.445Z,0.19
2019-04-01T04:07:19.591Z,0.18
2019-04-01T04:08:19.510Z,0.15
2019-04-01T04:09:19.387Z,0.16
2019-04-01T04:10:19.386Z,0.22
2019-04-01T04:11:19.375Z,0.18
2019-04-01T04:12:19.390Z,0.16
2019-04-01T04:13:19.354Z,0.21
2019-04-01T04:14:19.357Z,0.10
2019-04-01T04:15:19.343Z,0.23
2019-04-01T04:16:19.310Z,0.22
2019-04-01T04:17:19.348Z,0.19
2019-04-01T04:18:19.293Z,0.21
2019-04-01T04:19:19.302Z,0.08
2019-04-01T04:20:19.356Z,0.22
2019-04-01T04:21:23.694Z,0.11
2019-04-01T04:22:19.336Z,0.15
2019-04-01T04:23:19.253Z,0.12
2019-04-01T04:24:19.245Z,0.18
2019-04-01T04:25:19.239Z,0.22
2019-04-01T04:26:19.258Z,0.21
2019-04-01T04:27:19.236Z,0.18
2019-04-01T04:28:19.194Z,0.21
2019-04-01T04:29:19.427Z,0.19
2019-04-01T04:30:19.182Z,0.28
2019-04-01T04:31:19.275Z,0.19
2019-04-01T04:32:19.159Z,0.28
2019-04-01T04:33:19.204Z,0.26
2019-04-01T04:34:19.136Z,0.25
2019-04-01T04:35:19.117Z,0.37
2019-04-01T04:36:19.122Z,0.36
2019-04-01T04:37:19.147Z,0.26
2019-04-01T04:38:19.086Z,0.23
2019-04-01T04:39:19.218Z,0.32
2019-04-01T04:40:19.137Z,0.28
2019-04-01T04:41:19.083Z,0.28
2019-04-01T04:42:19.075Z,0.26
2019-04-01T04:43:19.038Z,0.31
2019-04-01T04:44:19.036Z,0.26
2019-04-01T04:45:19.040Z,0.26
2019-04-01T04:46:21.103Z,0.25
2019-04-01T04:47:18.990Z,0.22
2019-04-01T04:48:18.980Z,0.16
2019-04-01T04:49:18.974Z,0.28
2019-04-01T04:50:18.957Z,0.22
2019-04-01T04:51:18.996Z,0.21
2019-04-01T04:52:18.956Z,0.31
2019-04-01T04:53:18.929Z,0.28
2019-04-01T04:54:18.915Z,0.25
2019-04-01T04:55:18.908Z,0.25
2019-04-01T04:56:18.897Z,0.37
2019-04-01T04:57:20.510Z,0.39
2019-04-01T04:58:18.900Z,0.40
2019-04-01T04:59:18.872Z,0.41
2019-04-01T05:00:18.860Z,0.46
2019-04-01T05:01:18.842Z,0.44
2019-04-01T05:02:18.843Z,0.32
2019-04-01T05:03:18.824Z,0.36
2019-04-01T05:04:18.889Z,0.37
2019-04-01T05:05:18.821Z,0.34
2019-04-01T05:06:18.829Z,0.31
2019-04-01T05:07:18.793Z,0.36
2019-04-01T05:08:18.781Z,0.26
2019-04-01T05:09:18.757Z,0.39
2019-04-01T05:10:18.765Z,0.28
2019-04-01T05:11:18.752Z,0.43
2019-04-01T05:12:18.749Z,0.29
2019-04-01T05:13:18.732Z,0.29
2019-04-01T05:14:18.706Z,0.40
2019-04-01T05:15:18.757Z,0.34
2019-04-01T05:16:18.694Z,0.31
2019-04-01T05:17:18.734Z,0.29
2019-04-01T05:18:18.685Z,0.31
2019-04-01T05:19:18.653Z,0.31
2019-04-01T05:20:18.666Z,0.37
2019-04-01T05:21:18.635Z,0.32
2019-04-01T05:22:18.639Z,0.36
2019-04-01T05:23:18.628Z,0.29
2019-04-01T05:24:18.662Z,0.32
2019-04-01T05:25:18.596Z,0.43
2019-04-01T05:26:18.588Z,0.31
2019-04-01T05:27:18.575Z,0.44
2019-04-01T05:28:18.579Z,0.36
2019-04-01T05:29:18.568Z,0.32
2019-04-01T05:30:18.541Z,0.36
2019-04-01T05:31:18.532Z,0.37
2019-04-01T05:32:18.617Z,0.36
2019-04-01T05:33:18.525Z,0.37
2019-04-01T05:34:18.520Z,0.34
2019-04-01T05:35:18.487Z,0.37
2019-04-01T05:36:18.484Z,0.26
2019-04-01T05:37:18.492Z,0.31
2019-04-01T05:38:18.456Z,0.41
2019-04-01T05:39:18.471Z,0.39
2019-04-01T05:40:18.456Z,0.44
2019-04-01T05:41:18.449Z,0.44
2019-04-01T05:42:18.490Z,0.50
2019-04-01T05:43:18.414Z,0.50
2019-04-01T05:44:18.414Z,0.52
2019-04-01T05:45:18.383Z,0.65
2019-04-01T05:46:18.377Z,0.70
2019-04-01T05:47:18.366Z,0.59
2019-04-01T05:48:18.380Z,0.66
2019-04-01T05:49:18.346Z,0.70
2019-04-01T05:50:18.334Z,0.68
2019-04-01T05:51:18.407Z,0.69
2019-04-01T05:52:18.315Z,0.70
2019-04-01T05:53:18.308Z,0.74
2019-04-01T05:54:18.319Z,0.76
2019-04-01T05:55:18.281Z,0.86
2019-04-01T05:56:18.275Z,0.81
2019-04-01T05:57:18.282Z,0.81
2019-04-01T05:58:18.332Z,0.92
2019-04-01T05:59:18.239Z,0.96
2019-04-01T06:00:20.817Z,0.99
2019-04-01T06:01:18.216Z,0.99
2019-04-01T06:02:18.228Z,1.04
2019-04-01T06:03:18.233Z,1.05
2019-04-01T06:04:18.188Z,1.10
2019-04-01T06:05:18.178Z,1.12
2019-04-01T06:06:18.174Z,1.17
2019-04-01T06:07:18.161Z,1.19
2019-04-01T06:08:18.173Z,1.17
2019-04-01T06:09:18.151Z,1.14
2019-04-01T06:10:18.122Z,1.26
2019-04-01T06:11:18.113Z,1.22
2019-04-01T06:12:18.150Z,1.23
2019-04-01T06:13:18.097Z,1.19
2019-04-01T06:14:18.106Z,1.26
2019-04-01T06:15:18.276Z,1.26
2019-04-01T06:16:18.116Z,1.24
2019-04-01T06:17:18.075Z,1.41
2019-04-01T06:18:18.063Z,1.35
2019-04-01T06:19:18.044Z,1.41
2019-04-01T06:20:18.025Z,1.53
2019-04-01T06:21:18.065Z,1.53
2019-04-01T06:22:17.996Z,1.58
2019-04-01T06:23:18.005Z,1.70
2019-04-01T06:24:17.976Z,1.63
2019-04-01T06:25:17.966Z,1.73
2019-04-01T06:26:17.964Z,1.77
2019-04-01T06:27:18.001Z,1.60
2019-04-01T06:28:17.958Z,1.68
2019-04-01T06:29:17.930Z,1.80
2019-04-01T06:30:17.921Z,1.97
2019-04-01T06:31:17.923Z,2.04
2019-04-01T06:32:17.898Z,2.04
2019-04-01T06:33:17.880Z,2.14
2019-04-01T06:34:17.942Z,2.13
2019-04-01T06:35:17.876Z,2.18
2019-04-01T06:36:17.861Z,2.38
2019-04-01T06:37:17.854Z,2.47
2019-04-01T06:38:17.830Z,2.44
2019-04-01T06:39:17.827Z,2.49
2019-04-01T06:40:17.831Z,2.44
2019-04-01T06:41:17.852Z,2.42
2019-04-01T06:42:17.791Z,2.57
2019-04-01T06:43:17.779Z,2.65
2019-04-01T06:44:17.772Z,2.71
2019-04-01T06:45:17.756Z,2.67
2019-04-01T06:46:17.768Z,2.71
2019-04-01T06:47:17.774Z,2.69
2019-04-01T06:48:17.737Z,2.68
2019-04-01T06:49:20.312Z,2.65
2019-04-01T06:50:17.706Z,2.85
2019-04-01T06:51:17.704Z,2.89
2019-04-01T06:52:17.698Z,2.90
2019-04-01T06:53:17.725Z,2.97
2019-04-01T06:54:17.659Z,2.92
2019-04-01T06:55:17.659Z,3.01
2019-04-01T06:56:17.648Z,3.07
2019-04-01T06:57:17.627Z,3.05
2019-04-01T06:58:17.630Z,3.13
2019-04-01T06:59:17.623Z,3.18
2019-04-01T07:00:17.640Z,3.19
2019-04-01T07:01:17.584Z,3.08
2019-04-01T07:02:17.588Z,3.14
2019-04-01T07:03:18.726Z,3.21
2019-04-01T07:04:17.612Z,3.16
2019-04-01T07:05:17.544Z,3.19
2019-04-01T07:06:17.578Z,3.22
2019-04-01T07:07:19.101Z,3.14
2019-04-01T07:08:17.525Z,3.26
2019-04-01T07:09:17.603Z,3.36
2019-04-01T07:10:17.507Z,3.36
2019-04-01T07:11:17.519Z,3.32
2019-04-01T07:12:17.471Z,3.45
2019-04-01T07:13:17.619Z,3.42
2019-04-01T07:14:17.467Z,3.53
2019-04-01T07:15:17.451Z,3.62
2019-04-01T07:16:17.432Z,3.59
2019-04-01T07:17:17.416Z,3.58
2019-04-01T07:18:17.626Z,3.69
2019-04-01T07:19:17.414Z,3.70
2019-04-01T07:20:17.394Z,3.80
2019-04-01T07:21:17.406Z,3.83
2019-04-01T07:22:17.371Z,3.96
2019-04-01T07:23:17.352Z,3.91
2019-04-01T07:24:17.363Z,3.94
2019-04-01T07:25:17.330Z,4.12
2019-04-01T07:26:17.322Z,4.12
2019-04-01T07:27:17.312Z,4.17
2019-04-01T07:28:17.350Z,4.23
2019-04-01T07:29:17.294Z,4.40
2019-04-01T07:30:17.295Z,4.40
2019-04-01T07:31:17.267Z,4.49
2019-04-01T07:32:17.272Z,4.50
2019-04-01T07:33:17.257Z,4.55
2019-04-01T07:34:17.235Z,4.58
2019-04-01T07:35:17.284Z,4.63
2019-04-01T07:36:17.231Z,4.71
2019-04-01T07:37:17.209Z,4.60
2019-04-01T07:38:17.197Z,4.74
2019-04-01T07:39:17.187Z,4.77
2019-04-01T07:40:17.202Z,4.75
2019-04-01T07:41:17.163Z,4.77
2019-04-01T07:42:17.208Z,4.74
2019-04-01T07:43:17.139Z,4.86
2019-04-01T07:44:17.161Z,4.87
2019-04-01T07:45:17.139Z,4.94
2019-04-01T07:46:17.122Z,4.99
2019-04-01T07:47:17.104Z,4.94
2019-04-01T07:48:17.087Z,4.93
2019-04-01T07:49:17.082Z,5.11
2019-04-01T07:50:17.098Z,5.14
2019-04-01T07:51:17.071Z,5.26
2019-04-01T07:52:17.044Z,5.38
2019-04-01T07:53:17.034Z,5.46
2019-04-01T07:54:18.625Z,5.50
2019-04-01T07:55:17.037Z,5.62
2019-04-01T07:56:17.051Z,5.56
2019-04-01T07:57:16.991Z,5.57
2019-04-01T07:58:16.987Z,5.72
2019-04-01T07:59:16.977Z,5.83
2019-04-01T08:00:16.976Z,5.89
2019-04-01T08:01:17.051Z,5.86
2019-04-01T08:02:16.980Z,5.82
2019-04-01T08:03:16.932Z,5.90
2019-04-01T08:04:16.924Z,5.94
2019-04-01T08:05:16.915Z,5.94
2019-04-01T08:06:16.895Z,5.91
2019-04-01T08:07:16.906Z,5.99
2019-04-01T08:08:16.898Z,6.04
2019-04-01T08:09:16.922Z,6.11
2019-04-01T08:10:16.857Z,6.16
2019-04-01T08:11:16.843Z,6.24
2019-04-01T08:12:16.835Z,6.20
2019-04-01T08:13:16.843Z,6.16
2019-04-01T08:14:16.809Z,6.24
2019-04-01T08:15:16.821Z,6.27
2019-04-01T08:16:16.809Z,6.28
2019-04-01T08:17:16.781Z,6.31
2019-04-01T08:18:16.773Z,6.35
2019-04-01T08:19:16.776Z,6.48
2019-04-01T08:20:16.748Z,6.54
2019-04-01T08:21:16.784Z,6.60
2019-04-01T08:22:16.730Z,6.75
2019-04-01T08:23:16.720Z,6.89
2019-04-01T08:24:16.703Z,6.92
2019-04-01T08:25:16.705Z,7.02
2019-04-01T08:26:16.701Z,7.14
2019-04-01T08:27:16.725Z,7.18
2019-04-01T08:28:16.668Z,7.25
2019-04-01T08:29:29.350Z,7.20
2019-04-01T08:30:17.641Z,7.17
2019-04-01T08:31:16.662Z,7.21
2019-04-01T08:32:16.621Z,7.38
2019-04-01T08:33:16.635Z,7.50
2019-04-01T08:34:16.599Z,7.60
2019-04-01T08:35:16.603Z,7.61
2019-04-01T08:36:16.598Z,7.83
2019-04-01T08:37:16.569Z,8.00
2019-04-01T08:38:16.558Z,8.31
2019-04-01T08:39:16.571Z,8.37
2019-04-01T08:40:16.569Z,8.63
2019-04-01T08:41:16.535Z,8.82
2019-04-01T08:42:16.531Z,8.99
2019-04-01T08:43:16.503Z,9.13
2019-04-01T08:44:16.503Z,9.23
2019-04-01T08:45:16.576Z,9.36
2019-04-01T08:46:16.521Z,9.48
2019-04-01T08:47:16.460Z,9.56
2019-04-01T08:48:16.451Z,9.69
2019-04-01T08:49:16.454Z,9.68
2019-04-01T08:50:16.427Z,9.97
2019-04-01T08:51:16.416Z,10.01
2019-04-01T08:52:16.425Z,10.20
2019-04-01T08:53:16.429Z,10.46
2019-04-01T08:54:16.460Z,10.71
2019-04-01T08:55:16.378Z,10.84
2019-04-01T08:56:16.399Z,11.00
2019-04-01T08:57:16.370Z,11.08
2019-04-01T08:58:16.347Z,11.07
2019-04-01T08:59:16.350Z,11.05
2019-04-01T09:00:16.357Z,10.89
2019-04-01T09:01:16.321Z,10.86
2019-04-01T09:02:18.283Z,11.11
2019-04-01T09:03:16.292Z,11.22
2019-04-01T09:04:16.278Z,11.44
2019-04-01T09:05:16.267Z,11.51
2019-04-01T09:06:16.270Z,11.75
2019-04-01T09:07:16.304Z,11.66
2019-04-01T09:08:16.237Z,11.57
2019-04-01T09:09:16.243Z,11.66
2019-04-01T09:10:16.223Z,11.66
2019-04-01T09:11:16.203Z,11.48
2019-04-01T09:12:16.209Z,11.30
2019-04-01T09:13:16.286Z,11.22
2019-04-01T09:14:16.207Z,11.15
2019-04-01T09:15:16.163Z,11.12
2019-04-01T09:16:16.151Z,11.19
2019-04-01T09:17:16.158Z,11.43
2019-04-01T09:18:16.125Z,11.29
2019-04-01T09:19:16.116Z,11.15
2019-04-01T09:20:16.114Z,11.02
2019-04-01T09:21:16.206Z,10.68
2019-04-01T09:22:16.099Z,10.46
2019-04-01T09:23:16.113Z,10.28
2019-04-01T09:24:16.282Z,10.25
2019-04-01T09:25:16.062Z,10.17
2019-04-01T09:26:16.056Z,10.09
2019-04-01T09:27:16.071Z,10.04
2019-04-01T09:28:16.029Z,9.92
2019-04-01T09:29:16.117Z,9.86
2019-04-01T09:30:18.681Z,9.82
2019-04-01T09:31:15.993Z,9.84
2019-04-01T09:32:16.031Z,9.82
2019-04-01T09:33:15.968Z,9.89
2019-04-01T09:34:15.960Z,10.12
2019-04-01T09:35:15.963Z,10.69
2019-04-01T09:36:15.936Z,11.47
2019-04-01T09:37:15.955Z,12.00
2019-04-01T09:38:15.913Z,12.58
2019-04-01T09:39:15.904Z,12.85
2019-04-01T09:40:15.902Z,12.83
2019-04-01T09:41:15.922Z,13.08
2019-04-01T09:42:15.896Z,12.95
2019-04-01T09:43:15.859Z,13.08
2019-04-01T09:44:15.853Z,13.11
2019-04-01T09:45:15.844Z,13.31
2019-04-01T09:46:15.830Z,13.42
2019-04-01T09:47:15.846Z,13.53
2019-04-01T09:48:15.827Z,13.59
2019-04-01T09:49:15.797Z,13.62
2019-04-01T09:50:15.787Z,13.90
2019-04-01T09:51:15.773Z,14.07
2019-04-01T09:52:15.765Z,14.18
2019-04-01T09:53:15.796Z,14.23
2019-04-01T09:54:15.758Z,13.97
2019-04-01T09:55:15.732Z,13.85
2019-04-01T09:56:15.719Z,13.67
2019-04-01T09:57:18.365Z,13.81
2019-04-01T09:58:15.704Z,13.85
2019-04-01T09:59:15.724Z,13.79
2019-04-01T10:00:15.734Z,13.74
2019-04-01T10:01:15.666Z,13.77
2019-04-01T10:02:15.706Z,13.89
2019-04-01T10:03:15.644Z,13.85
2019-04-01T10:04:15.633Z,13.97
2019-04-01T10:05:15.625Z,13.90
2019-04-01T10:06:15.847Z,13.93
2019-04-01T10:07:15.624Z,14.18
2019-04-01T10:08:15.654Z,14.30
2019-04-01T10:09:15.591Z,14.26
2019-04-01T10:10:15.579Z,14.25
2019-04-01T10:11:15.584Z,14.30
2019-04-01T10:12:15.568Z,14.43
2019-04-01T10:13:15.569Z,14.50
2019-04-01T10:14:15.526Z,14.58
2019-04-01T10:15:15.514Z,14.43
2019-04-01T10:16:15.528Z,14.48
2019-04-01T10:17:15.515Z,14.48
2019-04-01T10:18:15.519Z,14.55
2019-04-01T10:19:15.478Z,14.66
2019-04-01T10:20:15.465Z,14.91
2019-04-01T10:21:15.450Z,14.79
2019-04-01T10:22:15.444Z,14.99
2019-04-01T10:23:15.471Z,15.36
2019-04-01T10:24:15.438Z,15.46
2019-04-01T10:25:15.409Z,15.40
2019-04-01T10:26:15.397Z,15.36
2019-04-01T10:27:15.597Z,15.19
2019-04-01T10:28:15.374Z,15.04
2019-04-01T10:29:15.367Z,15.14
2019-04-01T10:30:15.480Z,15.25
2019-04-01T10:31:15.375Z,15.37
2019-04-01T10:32:15.333Z,15.76
2019-04-01T10:33:15.337Z,16.09
2019-04-01T10:34:15.320Z,16.15
2019-04-01T10:35:15.346Z,16.01
2019-04-01T10:36:15.313Z,16.13
2019-04-01T10:37:15.298Z,16.15
2019-04-01T10:38:15.376Z,15.83
2019-04-01T10:39:15.267Z,15.75
2019-04-01T10:40:15.261Z,15.62
2019-04-01T10:41:15.247Z,15.73
2019-04-01T10:42:15.378Z,15.84
2019-04-01T10:43:15.251Z,15.70
2019-04-01T10:44:15.227Z,15.47
2019-04-01T10:45:15.192Z,15.31
2019-04-01T10:46:15.220Z,15.22
2019-04-01T10:47:15.193Z,15.10
2019-04-01T10:48:15.373Z,15.18
2019-04-01T10:49:15.320Z,15.06
2019-04-01T10:50:15.177Z,15.28
2019-04-01T10:51:15.198Z,15.44
2019-04-01T10:52:15.166Z,15.40
2019-04-01T10:53:15.141Z,15.40
2019-04-01T10:54:15.160Z,15.76
2019-04-01T10:55:15.107Z,15.76
2019-04-01T10:56:15.118Z,15.59
2019-04-01T10:57:15.129Z,15.68
2019-04-01T10:58:15.094Z,15.67
2019-04-01T10:59:15.141Z,15.68
2019-04-01T11:00:15.160Z,15.72
2019-04-01T11:01:15.063Z,15.61
2019-04-01T11:02:18.314Z,15.54
2019-04-01T11:03:15.006Z,15.40
2019-04-01T11:04:15.013Z,15.52
2019-04-01T11:05:15.002Z,15.51
2019-04-01T11:06:15.020Z,15.19
2019-04-01T11:07:15.033Z,15.19
2019-04-01T11:08:15.056Z,15.11
2019-04-01T11:09:14.945Z,15.00
2019-04-01T11:10:15.144Z,15.04
2019-04-01T11:11:14.945Z,14.85
2019-04-01T11:12:14.905Z,15.02
2019-04-01T11:13:14.906Z,14.70
2019-04-01T11:14:14.997Z,14.70
2019-04-01T11:15:15.742Z,14.82
2019-04-01T11:16:14.875Z,14.53
2019-04-01T11:17:15.412Z,14.35
2019-04-01T11:18:14.872Z,14.23
2019-04-01T11:19:14.870Z,14.04
2019-04-01T11:20:14.845Z,13.95
2019-04-01T11:21:14.811Z,13.83
2019-04-01T11:22:14.796Z,13.87
2019-04-01T11:23:14.835Z,13.99
2019-04-01T11:24:14.775Z,13.95
2019-04-01T11:25:14.779Z,13.93
2019-04-01T11:26:14.769Z,14.12
2019-04-01T11:27:14.753Z,14.11
2019-04-01T11:28:14.831Z,14.17
2019-04-01T11:29:14.796Z,14.04
2019-04-01T11:30:14.711Z,14.11
2019-04-01T11:31:14.944Z,14.03
2019-04-01T11:32:14.795Z,14.22
2019-04-01T11:33:14.719Z,14.26
2019-04-01T11:34:14.706Z,14.55
2019-04-01T11:35:16.139Z,14.66
2019-04-01T11:36:14.647Z,14.84
2019-04-01T11:37:14.708Z,15.11
2019-04-01T11:38:14.686Z,15.22
2019-04-01T11:39:14.658Z,15.36
2019-04-01T11:40:14.622Z,15.44
2019-04-01T11:41:14.647Z,15.46
2019-04-01T11:42:14.602Z,15.46
2019-04-01T11:43:14.676Z,15.75
2019-04-01T11:44:14.567Z,15.79
2019-04-01T11:45:14.597Z,15.73
2019-04-01T11:46:14.565Z,15.67
2019-04-01T11:47:14.629Z,15.36
2019-04-01T11:48:14.550Z,15.49
2019-04-01T11:49:14.529Z,15.42
2019-04-01T11:50:14.541Z,15.44
2019-04-01T11:51:14.556Z,15.24
2019-04-01T11:52:15.752Z,15.07
2019-04-01T11:53:14.462Z,14.81
2019-04-01T11:54:14.470Z,15.15
2019-04-01T11:55:14.520Z,15.36
2019-04-01T11:56:14.429Z,15.44
2019-04-01T11:57:14.420Z,15.52
2019-04-01T11:58:14.407Z,15.55
2019-04-01T11:59:14.416Z,15.59
2019-04-01T12:00:14.409Z,15.84
2019-04-01T12:01:14.392Z,15.72
2019-04-01T12:02:14.364Z,15.65
2019-04-01T12:03:14.360Z,15.65
2019-04-01T12:04:14.343Z,15.73
2019-04-01T12:05:14.351Z,15.73
2019-04-01T12:06:14.323Z,15.91
2019-04-01T12:07:14.342Z,16.15
2019-04-01T12:08:14.303Z,16.33
2019-04-01T12:09:14.287Z,16.20
2019-04-01T12:10:14.280Z,16.00
2019-04-01T12:11:14.289Z,16.09
2019-04-01T12:12:23.721Z,16.20
2019-04-01T12:13:15.267Z,16.29
2019-04-01T12:14:14.253Z,16.31
2019-04-01T12:15:14.223Z,16.39
2019-04-01T12:16:14.217Z,16.50
2019-04-01T12:17:14.261Z,16.29
2019-04-01T12:18:14.204Z,16.15
2019-04-01T12:19:14.183Z,16.38
2019-04-01T12:20:14.182Z,16.64
2019-04-01T12:21:14.196Z,16.66
2019-04-01T12:22:14.161Z,16.93
2019-04-01T12:23:14.477Z,16.94
2019-04-01T12:24:14.136Z,17.11
2019-04-01T12:25:14.129Z,17.06
2019-04-01T12:26:15.734Z,17.06
2019-04-01T12:27:14.101Z,17.24
2019-04-01T12:28:14.257Z,17.24
2019-04-01T12:29:14.612Z,17.45
2019-04-01T12:30:14.077Z,17.68
2019-04-01T12:31:14.065Z,17.71
2019-04-01T12:32:14.053Z,17.68
2019-04-01T12:33:14.044Z,17.78
2019-04-01T12:34:14.042Z,18.04
2019-04-01T12:35:14.035Z,18.37
2019-04-01T12:36:14.087Z,18.80
2019-04-01T12:37:14.012Z,19.04
2019-04-01T12:38:13.979Z,19.27
2019-04-01T12:39:13.984Z,19.41
2019-04-01T12:40:13.969Z,19.37
2019-04-01T12:41:13.961Z,18.66
2019-04-01T12:42:13.943Z,18.62
2019-04-01T12:43:15.244Z,18.26
2019-04-01T12:44:13.913Z,17.90
2019-04-01T12:45:13.907Z,17.67
2019-04-01T12:46:13.897Z,17.36
2019-04-01T12:47:13.915Z,16.93
2019-04-01T12:48:13.931Z,16.49
2019-04-01T12:49:13.877Z,15.94
2019-04-01T12:50:13.848Z,15.57
2019-04-01T12:51:13.873Z,15.36
2019-04-01T12:52:13.861Z,15.07
2019-04-01T12:53:13.946Z,14.85
2019-04-01T12:54:15.259Z,14.69
2019-04-01T12:55:13.805Z,14.65
2019-04-01T12:56:13.782Z,14.59
2019-04-01T12:57:13.783Z,14.48
2019-04-01T12:58:13.762Z,14.53
2019-04-01T12:59:13.767Z,14.53
2019-04-01T13:00:13.758Z,14.48
2019-04-01T13:01:13.729Z,14.41
2019-04-01T13:02:13.718Z,14.33
2019-04-01T13:03:13.712Z,14.40
2019-04-01T13:04:13.697Z,14.36
2019-04-01T13:05:13.716Z,14.35
2019-04-01T13:06:13.688Z,14.36
2019-04-01T13:07:13.663Z,14.23
2019-04-01T13:08:13.653Z,14.22
2019-04-01T13:09:13.646Z,14.25
2019-04-01T13:10:13.633Z,14.20